createdAt,value
2018-06-25T00:01:09.931Z,15.90
2018-06-25T00:03:38.796Z,15.90
2018-06-25T00:06:07.262Z,15.90
2018-06-25T00:08:35.524Z,15.90
2018-06-25T00:11:03.841Z,15.80
2018-06-25T00:13:32.039Z,15.80
2018-06-25T00:16:00.860Z,15.80
2018-06-25T00:18:29.524Z,15.80
2018-06-25T00:20:58.638Z,15.80
2018-06-25T00:23:26.917Z,15.80
2018-06-25T00:25:55.218Z,15.80
2018-06-25T00:28:23.470Z,15.80
2018-06-25T00:30:51.709Z,15.80
2018-06-25T00:33:20.263Z,15.80
2018-06-25T00:38:16.802Z,15.50
2018-06-25T00:40:45.056Z,15.40
2018-06-25T00:43:13.268Z,15.30
2018-06-25T00:45:41.579Z,15.20
2018-06-25T00:48:09.867Z,15.10
2018-06-25T00:50:38.155Z,14.90
2018-06-25T00:53:06.497Z,14.90
2018-06-25T00:55:34.698Z,14.80
2018-06-25T00:58:02.974Z,14.80
2018-06-25T01:00:31.281Z,14.70
2018-06-25T01:02:59.902Z,14.80
2018-06-25T01:05:28.135Z,14.90
2018-06-25T01:07:56.458Z,15.00
2018-06-25T01:10:24.701Z,15.10
2018-06-25T01:15:21.327Z,15.20
2018-06-25T01:17:49.576Z,15.30
2018-06-25T01:20:17.920Z,15.40
2018-06-25T01:22:46.195Z,15.40
2018-06-25T01:25:14.426Z,15.50
2018-06-25T01:27:42.720Z,15.50
2018-06-25T01:30:10.982Z,15.60
2018-06-25T01:32:39.474Z,15.60
2018-06-25T01:35:07.965Z,15.60
2018-06-25T01:37:36.506Z,15.60
2018-06-25T01:40:05.105Z,15.70
2018-06-25T01:42:33.420Z,15.70
2018-06-25T01:45:01.710Z,15.70
2018-06-25T01:47:30.157Z,15.70
2018-06-25T01:49:58.516Z,15.70
2018-06-25T01:52:28.126Z,15.60
2018-06-25T01:54:56.378Z,15.60
2018-06-25T01:57:24.551Z,15.60
2018-06-25T01:59:52.915Z,15.60
2018-06-25T02:02:21.166Z,15.70
2018-06-25T02:04:49.392Z,15.70
2018-06-25T02:07:18.103Z,15.70
2018-06-25T02:09:48.080Z,15.70
2018-06-25T02:12:16.702Z,15.70
2018-06-25T02:14:44.960Z,15.60
2018-06-25T02:17:13.198Z,15.60
2018-06-25T02:19:41.512Z,15.60
2018-06-25T02:22:09.765Z,15.60
2018-06-25T02:24:38.178Z,15.60
2018-06-25T02:27:06.463Z,15.70
2018-06-25T02:29:34.679Z,15.70
2018-06-25T02:32:02.906Z,15.70
2018-06-25T02:34:31.089Z,15.70
2018-06-25T02:36:59.504Z,15.70
2018-06-25T02:39:28.278Z,15.70
2018-06-25T02:41:56.933Z,15.70
2018-06-25T02:44:25.223Z,15.70
2018-06-25T02:46:53.445Z,15.70
2018-06-25T02:49:21.761Z,15.70
2018-06-25T02:51:49.965Z,15.60
2018-06-25T02:54:18.238Z,15.60
2018-06-25T02:56:46.546Z,15.70
2018-06-25T02:59:14.798Z,15.70
2018-06-25T03:01:43.554Z,15.70
2018-06-25T03:04:11.935Z,15.70
2018-06-25T03:06:40.228Z,15.60
2018-06-25T03:09:10.032Z,15.60
2018-06-25T03:11:38.543Z,15.50
2018-06-25T03:14:07.103Z,15.50
2018-06-25T03:16:35.732Z,15.60
2018-06-25T03:19:04.366Z,15.60
2018-06-25T03:21:32.705Z,15.60
2018-06-25T03:24:00.988Z,15.70
2018-06-25T03:26:29.213Z,15.70
2018-06-25T03:28:57.569Z,15.70
2018-06-25T03:31:25.845Z,15.70
2018-06-25T03:33:54.439Z,15.60
2018-06-25T03:36:22.857Z,15.60
2018-06-25T03:38:51.248Z,15.60
2018-06-25T03:41:19.733Z,15.60
2018-06-25T03:43:48.006Z,15.60
2018-06-25T03:46:16.299Z,15.50
2018-06-25T03:48:44.595Z,15.60
2018-06-25T03:51:12.787Z,15.60
2018-06-25T03:53:40.963Z,15.70
2018-06-25T03:56:09.250Z,15.80
2018-06-25T03:58:37.625Z,15.90
2018-06-25T04:01:06.258Z,16.00
2018-06-25T04:03:34.502Z,16.10
2018-06-25T04:06:02.903Z,16.10
2018-06-25T04:08:31.202Z,16.20
2018-06-25T04:10:59.403Z,16.30
2018-06-25T04:13:27.818Z,16.30
2018-06-25T04:15:56.447Z,16.40
2018-06-25T04:18:24.721Z,16.40
2018-06-25T04:20:53.222Z,16.50
2018-06-25T04:23:21.567Z,16.60
2018-06-25T04:25:49.852Z,16.60
2018-06-25T04:28:18.466Z,16.60
2018-06-25T04:30:46.760Z,16.60
2018-06-25T04:33:15.029Z,16.50
2018-06-25T04:35:43.776Z,16.60
2018-06-25T04:38:12.094Z,16.70
2018-06-25T04:40:40.459Z,16.80
2018-06-25T04:43:08.806Z,16.80
2018-06-25T04:48:08.581Z,16.80
2018-06-25T04:50:37.126Z,16.80
2018-06-25T04:53:05.529Z,16.80
2018-06-25T04:55:33.839Z,16.80
2018-06-25T04:58:02.311Z,16.90
2018-06-25T05:00:30.508Z,17.00
2018-06-25T05:02:58.753Z,16.90
2018-06-25T05:05:27.070Z,17.00
2018-06-25T05:07:55.546Z,17.00
2018-06-25T05:10:25.594Z,17.00
2018-06-25T05:12:53.936Z,17.10
2018-06-25T05:15:22.485Z,17.30
2018-06-25T05:17:51.079Z,17.30
2018-06-25T05:20:19.516Z,17.30
2018-06-25T05:22:47.890Z,17.30
2018-06-25T05:25:16.300Z,17.30
2018-06-25T05:27:44.727Z,17.30
2018-06-25T05:30:13.030Z,17.20
2018-06-25T05:32:41.686Z,17.20
2018-06-25T05:35:09.920Z,17.20
2018-06-25T05:37:39.520Z,17.30
2018-06-25T05:40:08.000Z,17.30
2018-06-25T05:42:36.284Z,17.20
2018-06-25T05:45:05.014Z,17.20
2018-06-25T05:47:33.244Z,17.10
2018-06-25T05:50:01.557Z,17.10
2018-06-25T05:52:29.953Z,16.90
2018-06-25T05:54:59.020Z,16.90
2018-06-25T05:57:27.454Z,16.90
2018-06-25T05:59:55.753Z,17.10
2018-06-25T06:02:24.369Z,17.10
2018-06-25T06:04:52.966Z,17.10
2018-06-25T06:07:22.127Z,17.00
2018-06-25T06:09:50.533Z,16.90
2018-06-25T06:12:19.094Z,17.00
2018-06-25T06:14:47.399Z,17.30
2018-06-25T06:17:15.768Z,17.40
2018-06-25T06:19:44.162Z,17.60
2018-06-25T06:22:12.924Z,17.80
2018-06-25T06:24:41.438Z,17.90
2018-06-25T06:27:11.290Z,18.10
2018-06-25T06:29:39.656Z,18.30
2018-06-25T06:32:07.911Z,18.60
2018-06-25T06:34:37.173Z,18.80
2018-06-25T06:37:05.422Z,18.90
2018-06-25T06:39:33.771Z,18.90
2018-06-25T06:42:01.979Z,18.90
2018-06-25T06:46:58.993Z,18.50
2018-06-25T06:49:28.327Z,18.40
2018-06-25T06:51:57.337Z,18.30
2018-06-25T06:54:26.355Z,18.20
2018-06-25T06:56:54.889Z,18.10
2018-06-25T06:59:23.291Z,17.80
2018-06-25T07:01:51.631Z,17.80
2018-06-25T07:04:20.425Z,17.90
2018-06-25T07:06:48.791Z,17.90
2018-06-25T07:09:17.160Z,18.00
2018-06-25T07:11:46.357Z,18.10
2018-06-25T07:14:14.638Z,18.20
2018-06-25T07:16:44.234Z,18.20
2018-06-25T07:19:12.510Z,18.30
2018-06-25T07:21:41.189Z,18.20
2018-06-25T07:24:09.666Z,18.30
2018-06-25T07:26:38.027Z,18.40
2018-06-25T07:29:06.533Z,18.50
2018-06-25T07:31:35.016Z,18.60
2018-06-25T07:34:03.298Z,18.70
2018-06-25T07:36:39.558Z,18.80
2018-06-25T07:39:09.288Z,18.80
2018-06-25T07:41:37.617Z,19.00
2018-06-25T07:44:06.041Z,19.10
2018-06-25T07:46:34.506Z,19.20
2018-06-25T07:49:03.115Z,19.40
2018-06-25T07:51:31.678Z,19.50
2018-06-25T07:53:59.858Z,19.50
2018-06-25T07:56:28.518Z,19.60
2018-06-25T07:58:57.264Z,19.70
2018-06-25T08:01:25.653Z,20.00
2018-06-25T08:03:53.936Z,20.20
2018-06-25T08:06:22.309Z,20.30
2018-06-25T08:08:51.548Z,20.20
2018-06-25T08:11:20.842Z,20.30
2018-06-25T08:13:49.733Z,20.40
2018-06-25T08:16:18.899Z,20.80
2018-06-25T08:18:47.250Z,21.00
2018-06-25T08:21:16.536Z,20.90
2018-06-25T08:23:44.905Z,20.80
2018-06-25T08:26:13.196Z,20.40
2018-06-25T08:28:42.525Z,20.30
2018-06-25T08:31:10.846Z,20.20
2018-06-25T08:33:39.404Z,20.50
2018-06-25T08:36:07.878Z,20.70
2018-06-25T08:38:36.713Z,20.90
2018-06-25T08:41:05.148Z,21.20
2018-06-25T08:43:33.382Z,21.60
2018-06-25T08:46:01.989Z,22.00
2018-06-25T08:48:30.334Z,22.70
2018-06-25T08:50:58.617Z,23.40
2018-06-25T08:53:27.197Z,23.80
2018-06-25T08:55:56.380Z,24.00
2018-06-25T08:58:25.557Z,24.30
2018-06-25T09:00:54.008Z,24.40
2018-06-25T09:03:22.441Z,24.90
2018-06-25T09:05:51.445Z,25.40
2018-06-25T09:08:19.657Z,25.40
2018-06-25T09:10:48.341Z,25.90
2018-06-25T09:13:17.427Z,26.20
2018-06-25T09:15:45.836Z,26.80
2018-06-25T09:18:13.987Z,27.30
2018-06-25T09:20:42.710Z,27.20
2018-06-25T09:25:39.082Z,26.80
2018-06-25T09:28:07.437Z,26.80
2018-06-25T09:30:35.725Z,26.50
2018-06-25T09:33:04.041Z,26.90
2018-06-25T09:35:32.613Z,27.20
2018-06-25T09:38:01.701Z,27.30
2018-06-25T09:40:29.995Z,27.30
2018-06-25T09:42:58.276Z,27.00
2018-06-25T09:45:26.619Z,26.60
2018-06-25T09:47:55.241Z,26.30
2018-06-25T09:50:23.651Z,26.10
2018-06-25T09:52:51.959Z,26.20
2018-06-25T09:55:20.236Z,26.40
2018-06-25T09:57:48.515Z,26.60
2018-06-25T10:00:21.354Z,26.80
2018-06-25T10:02:50.200Z,27.30
2018-06-25T10:05:18.541Z,27.60
2018-06-25T10:07:47.001Z,27.30
2018-06-25T10:10:15.324Z,27.40
2018-06-25T10:12:43.916Z,27.50
2018-06-25T10:15:12.157Z,27.40
2018-06-25T10:17:40.798Z,27.20
2018-06-25T10:20:08.962Z,26.90
2018-06-25T10:22:39.312Z,26.60
2018-06-25T10:25:07.855Z,26.40
2018-06-25T10:27:36.238Z,26.60
2018-06-25T10:30:04.767Z,26.80
2018-06-25T10:32:33.269Z,27.00
2018-06-25T10:35:01.672Z,27.30
2018-06-25T10:39:58.196Z,27.00
2018-06-25T10:42:26.938Z,27.30
2018-06-25T10:44:55.291Z,27.30
2018-06-25T10:47:23.580Z,27.00
2018-06-25T10:49:51.918Z,26.70
2018-06-25T10:52:20.147Z,26.50
2018-06-25T10:54:48.445Z,26.40
2018-06-25T10:57:17.174Z,26.10
2018-06-25T10:59:45.713Z,25.90
2018-06-25T11:02:13.880Z,25.90
2018-06-25T11:04:42.109Z,25.70
2018-06-25T11:07:10.824Z,25.40
2018-06-25T11:09:39.267Z,25.40
2018-06-25T11:12:07.543Z,25.40
2018-06-25T11:14:35.890Z,25.50
2018-06-25T11:17:04.225Z,25.90
2018-06-25T11:19:32.892Z,26.40
2018-06-25T11:22:01.539Z,26.70
2018-06-25T11:24:29.864Z,26.50
2018-06-25T11:26:58.354Z,26.00
2018-06-25T11:29:26.622Z,25.90
2018-06-25T11:31:54.948Z,26.20
2018-06-25T11:34:23.262Z,26.60
2018-06-25T11:36:51.487Z,26.50
2018-06-25T11:39:19.738Z,26.30
2018-06-25T11:41:48.096Z,26.10
2018-06-25T11:44:16.532Z,26.10
2018-06-25T11:46:44.914Z,26.20
2018-06-25T11:49:13.386Z,26.30
2018-06-25T11:51:41.900Z,26.40
2018-06-25T11:54:10.399Z,26.20
2018-06-25T11:56:38.811Z,26.30
2018-06-25T11:59:07.099Z,26.50
2018-06-25T12:01:35.462Z,26.50
2018-06-25T12:04:03.857Z,26.70
2018-06-25T12:06:32.064Z,27.00
2018-06-25T12:09:00.308Z,27.10
2018-06-25T12:11:28.617Z,27.00
2018-06-25T12:13:56.912Z,27.00
2018-06-25T12:16:25.264Z,27.00
2018-06-25T12:18:53.738Z,27.30
2018-06-25T12:21:22.081Z,27.30
2018-06-25T12:23:50.600Z,27.40
2018-06-25T12:26:19.109Z,27.70
2018-06-25T12:28:47.871Z,28.00
2018-06-25T12:31:17.321Z,28.10
2018-06-25T12:33:45.616Z,28.00
2018-06-25T12:36:14.364Z,27.80
2018-06-25T12:38:42.836Z,27.70
2018-06-25T12:41:11.081Z,27.50
2018-06-25T12:43:39.320Z,27.50
2018-06-25T12:46:07.564Z,27.60
2018-06-25T12:48:36.303Z,27.70
2018-06-25T12:51:04.656Z,27.80
2018-06-25T12:53:32.904Z,28.00
2018-06-25T12:56:01.175Z,28.20
2018-06-25T12:58:29.413Z,28.30
2018-06-25T13:00:57.805Z,28.40
2018-06-25T13:03:27.217Z,28.60
2018-06-25T13:05:55.645Z,28.60
2018-06-25T13:08:24.029Z,28.60
2018-06-25T13:10:52.355Z,28.70
2018-06-25T13:13:20.624Z,28.60
2018-06-25T13:15:48.871Z,28.60
2018-06-25T13:18:17.175Z,28.40
2018-06-25T13:20:45.750Z,28.40
2018-06-25T13:23:14.021Z,28.50
2018-06-25T13:25:42.800Z,28.70
2018-06-25T13:28:11.289Z,28.70
2018-06-25T13:30:39.632Z,28.80
2018-06-25T13:33:08.965Z,29.10
2018-06-25T13:35:37.802Z,29.10
2018-06-25T13:38:06.012Z,29.10
2018-06-25T13:40:34.579Z,29.00
2018-06-25T13:43:02.895Z,28.90
2018-06-25T13:45:31.200Z,29.20
2018-06-25T13:48:00.365Z,29.30
2018-06-25T13:50:29.156Z,29.30
2018-06-25T13:52:57.524Z,29.30
2018-06-25T13:55:26.107Z,29.40
2018-06-25T13:57:54.548Z,29.40
2018-06-25T14:00:22.886Z,29.30
2018-06-25T14:02:51.234Z,29.20
2018-06-25T14:05:19.518Z,29.20
2018-06-25T14:07:48.063Z,29.00
2018-06-25T14:10:17.156Z,29.10
2018-06-25T14:12:45.659Z,29.10
2018-06-25T14:15:14.136Z,29.10
2018-06-25T14:17:42.771Z,28.90
2018-06-25T14:20:12.667Z,28.80
2018-06-25T14:22:40.921Z,28.90
2018-06-25T14:25:09.897Z,29.00
2018-06-25T14:27:43.517Z,28.80
2018-06-25T14:30:17.231Z,28.60
2018-06-25T14:32:54.810Z,28.50
2018-06-25T14:35:23.106Z,28.10
2018-06-25T14:37:51.837Z,28.00
2018-06-25T14:40:20.204Z,28.10
2018-06-25T14:42:48.596Z,28.30
2018-06-25T14:45:17.386Z,28.40
2018-06-25T14:47:45.708Z,28.20
2018-06-25T14:50:14.579Z,28.00
2018-06-25T14:52:43.127Z,27.80
2018-06-25T14:55:11.364Z,27.40
2018-06-25T14:57:39.654Z,27.10
2018-06-25T15:00:08.543Z,26.70
2018-06-25T15:02:37.194Z,26.30
2018-06-25T15:05:05.886Z,26.10
2018-06-25T15:07:34.350Z,26.20
2018-06-25T15:10:02.724Z,26.40
2018-06-25T15:12:30.935Z,26.70
2018-06-25T15:14:59.589Z,27.10
2018-06-25T15:17:28.507Z,27.30
2018-06-25T15:19:58.533Z,27.00
2018-06-25T15:22:26.874Z,26.70
2018-06-25T15:24:55.286Z,26.20
2018-06-25T15:27:23.626Z,26.00
2018-06-25T15:29:51.948Z,25.80
2018-06-25T15:32:20.741Z,25.70
2018-06-25T15:34:49.134Z,25.80
2018-06-25T15:37:17.493Z,26.00
2018-06-25T15:39:46.098Z,26.10
2018-06-25T15:42:14.575Z,26.20
2018-06-25T15:44:42.956Z,26.40
2018-06-25T15:47:11.318Z,26.50
2018-06-25T15:49:39.667Z,26.60
2018-06-25T15:52:08.087Z,26.60
2018-06-25T15:54:37.044Z,26.20
2018-06-25T15:57:05.254Z,26.30
2018-06-25T15:59:33.615Z,26.40
2018-06-25T16:02:02.384Z,26.40
2018-06-25T16:04:31.777Z,26.30
2018-06-25T16:07:00.476Z,26.20
2018-06-25T16:09:30.031Z,26.10
2018-06-25T16:11:58.322Z,26.00
2018-06-25T16:14:27.247Z,26.00
2018-06-25T16:16:56.058Z,25.80
2018-06-25T16:19:24.762Z,25.60
2018-06-25T16:21:53.311Z,25.40
2018-06-25T16:24:22.000Z,25.20
2018-06-25T16:26:50.589Z,25.10
2018-06-25T16:29:19.064Z,25.10
2018-06-25T16:31:47.551Z,25.00
2018-06-25T16:34:15.831Z,25.00
2018-06-25T16:36:44.498Z,24.90
2018-06-25T16:39:14.094Z,24.60
2018-06-25T16:41:42.683Z,24.60
2018-06-25T16:44:11.454Z,24.60
2018-06-25T16:46:40.027Z,24.50
2018-06-25T16:49:08.711Z,24.30
2018-06-25T16:51:37.307Z,24.20
2018-06-25T16:54:06.753Z,24.10
2018-06-25T16:56:35.257Z,24.00
2018-06-25T16:59:03.647Z,24.00
2018-06-25T17:01:34.140Z,24.00
2018-06-25T17:04:02.757Z,23.90
2018-06-25T17:06:31.124Z,23.70
2018-06-25T17:08:59.943Z,23.60
2018-06-25T17:11:28.885Z,23.40
2018-06-25T17:13:58.663Z,23.40
2018-06-25T17:16:27.131Z,23.30
2018-06-25T17:18:57.614Z,23.30
2018-06-25T17:21:27.126Z,23.10
2018-06-25T17:23:55.646Z,23.00
2018-06-25T17:26:24.008Z,22.80
2018-06-25T17:28:52.434Z,22.70
2018-06-25T17:31:20.778Z,22.70
2018-06-25T17:33:49.013Z,22.70
2018-06-25T17:36:17.379Z,22.70
2018-06-25T17:41:14.069Z,22.50
2018-06-25T17:43:42.313Z,22.40
2018-06-25T17:46:10.651Z,22.20
2018-06-25T17:48:39.092Z,22.00
2018-06-25T17:51:07.433Z,21.80
2018-06-25T17:53:35.653Z,21.70
2018-06-25T17:56:03.911Z,21.60
2018-06-25T17:58:32.849Z,21.50
2018-06-25T18:01:01.579Z,21.40
2018-06-25T18:03:29.919Z,21.30
2018-06-25T18:05:58.243Z,21.20
2018-06-25T18:08:28.184Z,21.00
2018-06-25T18:10:56.661Z,20.80
2018-06-25T18:13:25.727Z,20.70
2018-06-25T18:15:54.071Z,20.50
2018-06-25T18:18:22.372Z,20.40
2018-06-25T18:20:50.625Z,20.30
2018-06-25T18:23:18.988Z,20.20
2018-06-25T18:25:47.357Z,20.10
2018-06-25T18:28:15.653Z,20.00
2018-06-25T18:30:44.498Z,19.90
2018-06-25T18:33:12.948Z,19.80
2018-06-25T18:35:44.981Z,19.70
2018-06-25T18:38:13.730Z,19.70
2018-06-25T18:40:42.052Z,19.60
2018-06-25T18:43:10.624Z,19.50
2018-06-25T18:45:39.037Z,19.40
2018-06-25T18:48:08.402Z,19.30
2018-06-25T18:50:36.859Z,19.20
2018-06-25T18:53:05.461Z,19.20
2018-06-25T18:55:33.694Z,19.10
2018-06-25T18:58:02.167Z,19.00
2018-06-25T19:00:30.947Z,19.00
2018-06-25T19:02:59.478Z,18.90
2018-06-25T19:05:28.155Z,18.80
2018-06-25T19:07:56.948Z,18.80
2018-06-25T19:10:25.397Z,18.70
2018-06-25T19:12:54.023Z,18.60
2018-06-25T19:15:22.285Z,18.60
2018-06-25T19:17:50.604Z,18.50
2018-06-25T19:20:19.041Z,18.40
2018-06-25T19:22:47.388Z,18.40
2018-06-25T19:25:15.745Z,18.30
2018-06-25T19:27:44.285Z,18.20
2018-06-25T19:30:12.663Z,18.20
2018-06-25T19:32:41.488Z,18.10
2018-06-25T19:35:10.591Z,18.10
2018-06-25T19:37:42.291Z,18.00
2018-06-25T19:40:14.978Z,18.00
2018-06-25T19:42:43.440Z,17.90
2018-06-25T19:45:11.812Z,17.80
2018-06-25T19:47:41.599Z,17.80
2018-06-25T19:50:10.257Z,17.70
2018-06-25T19:52:39.191Z,17.70
2018-06-25T19:55:09.733Z,17.60
2018-06-25T19:57:38.436Z,17.60
2018-06-25T20:00:07.042Z,17.60
2018-06-25T20:02:36.155Z,17.60
2018-06-25T20:05:04.531Z,17.50
2018-06-25T20:07:33.782Z,17.50
2018-06-25T20:10:02.193Z,17.40
2018-06-25T20:12:31.135Z,17.40
2018-06-25T20:14:59.455Z,17.40
2018-06-25T20:17:28.147Z,17.30
2018-06-25T20:19:56.538Z,17.20
2018-06-25T20:22:24.935Z,17.20
2018-06-25T20:24:53.285Z,17.20
2018-06-25T20:27:21.645Z,17.20
2018-06-25T20:29:50.009Z,17.10
2018-06-25T20:32:18.673Z,17.10
2018-06-25T20:34:47.943Z,17.10
2018-06-25T20:37:19.697Z,17.20
2018-06-25T20:39:48.050Z,17.30
2018-06-25T20:42:16.423Z,17.30
2018-06-25T20:44:45.047Z,17.40
2018-06-25T20:47:14.232Z,17.40
2018-06-25T20:49:46.204Z,17.40
2018-06-25T20:52:14.536Z,17.30
2018-06-25T20:54:43.664Z,17.30
2018-06-25T20:57:12.130Z,17.20
2018-06-25T20:59:41.396Z,17.10
2018-06-25T21:02:10.234Z,17.10
2018-06-25T21:04:38.763Z,17.00
2018-06-25T21:07:07.010Z,16.90
2018-06-25T21:09:36.818Z,16.90
2018-06-25T21:12:05.928Z,16.80
2018-06-25T21:14:34.897Z,16.80
2018-06-25T21:17:03.384Z,16.80
2018-06-25T21:19:32.044Z,16.70
2018-06-25T21:22:00.346Z,16.70
2018-06-25T21:24:29.048Z,16.70
2018-06-25T21:26:57.714Z,16.70
2018-06-25T21:29:26.178Z,16.70
2018-06-25T21:31:54.484Z,16.70
2018-06-25T21:34:23.954Z,16.80
2018-06-25T21:36:52.250Z,16.80
2018-06-25T21:39:21.000Z,16.80
2018-06-25T21:41:49.578Z,16.70
2018-06-25T21:44:18.349Z,16.70
2018-06-25T21:46:46.819Z,16.60
2018-06-25T21:49:15.110Z,16.60
2018-06-25T21:51:43.348Z,16.50
2018-06-25T21:54:11.604Z,16.40
2018-06-25T21:56:39.991Z,16.40
2018-06-25T21:59:08.182Z,16.30
2018-06-25T22:01:37.289Z,16.30
2018-06-25T22:04:05.609Z,16.20
2018-06-25T22:06:33.831Z,16.20
2018-06-25T22:09:02.128Z,16.20
2018-06-25T22:11:30.549Z,16.10
2018-06-25T22:13:58.969Z,16.10
2018-06-25T22:16:27.215Z,16.10
2018-06-25T22:18:55.739Z,16.00
2018-06-25T22:21:24.138Z,16.00
2018-06-25T22:23:52.355Z,16.00
2018-06-25T22:26:20.585Z,15.90
2018-06-25T22:28:48.758Z,15.90
2018-06-25T22:31:17.274Z,15.90
2018-06-25T22:33:45.529Z,15.90
2018-06-25T22:36:14.083Z,15.90
2018-06-25T22:38:42.361Z,15.80
2018-06-25T22:41:10.903Z,15.80
2018-06-25T22:43:39.653Z,15.80
2018-06-25T22:46:08.864Z,15.90
2018-06-25T22:48:37.935Z,15.90
2018-06-25T22:51:06.574Z,15.90
2018-06-25T22:53:34.883Z,15.90
2018-06-25T22:56:03.156Z,15.90
2018-06-25T22:58:31.379Z,15.90
2018-06-25T23:00:59.614Z,15.80
2018-06-25T23:03:28.531Z,15.80
2018-06-25T23:05:56.943Z,15.80
2018-06-25T23:08:25.451Z,15.70
2018-06-25T23:10:53.702Z,15.70
2018-06-25T23:13:21.982Z,15.60
2018-06-25T23:15:50.228Z,15.60
2018-06-25T23:18:18.471Z,15.50
2018-06-25T23:20:46.769Z,15.50
2018-06-25T23:23:15.291Z,15.40
2018-06-25T23:25:43.891Z,15.40
2018-06-25T23:28:12.548Z,15.40
2018-06-25T23:30:40.759Z,15.40
2018-06-25T23:33:09.664Z,15.40
2018-06-25T23:35:38.023Z,15.40
2018-06-25T23:38:06.312Z,15.30
2018-06-25T23:40:34.912Z,15.30
2018-06-25T23:43:03.163Z,15.30
2018-06-25T23:45:31.329Z,15.30
2018-06-25T23:47:59.714Z,15.20
2018-06-25T23:50:28.155Z,15.20
2018-06-25T23:52:56.967Z,15.10
2018-06-25T23:57:53.384Z,15.10
